createdAt,value
2019-02-28T00:01:39.389Z,30.47
2019-02-28T00:04:08.727Z,33.10
2019-02-28T00:06:37.987Z,32.97
2019-02-28T00:09:11.524Z,30.57
2019-02-28T00:11:40.792Z,33.30
2019-02-28T00:14:10.085Z,33.57
2019-02-28T00:16:39.461Z,33.50
2019-02-28T00:19:08.707Z,35.17
2019-02-28T00:21:40.620Z,34.70
2019-02-28T00:24:09.024Z,36.63
2019-02-28T00:26:38.282Z,31.90
2019-02-28T00:29:09.421Z,32.37
2019-02-28T00:31:38.944Z,32.93
2019-02-28T00:34:08.179Z,31.27
2019-02-28T00:36:37.445Z,32.83
2019-02-28T00:39:07.468Z,34.17
2019-02-28T00:41:36.838Z,33.50
2019-02-28T00:44:06.099Z,37.57
2019-02-28T00:46:35.256Z,36.03
2019-02-28T00:49:04.642Z,30.73
2019-02-28T00:51:33.899Z,34.90
2019-02-28T00:54:03.189Z,32.93
2019-02-28T00:56:32.480Z,33.70
2019-02-28T00:59:01.745Z,33.70
2019-02-28T01:01:31.035Z,31.23
2019-02-28T01:04:00.387Z,36.77
2019-02-28T01:06:29.694Z,30.97
2019-02-28T01:08:59.024Z,31.87
2019-02-28T01:11:28.293Z,29.47
2019-02-28T01:13:58.116Z,33.77
2019-02-28T01:16:28.781Z,35.00
2019-02-28T01:18:58.193Z,35.27
2019-02-28T01:21:27.594Z,33.07
2019-02-28T01:23:56.978Z,33.13
2019-02-28T01:26:26.150Z,35.80
2019-02-28T01:29:01.477Z,29.13
2019-02-28T01:31:26.955Z,36.40
2019-02-28T01:33:58.765Z,31.73
2019-02-28T01:36:27.542Z,34.30
2019-02-28T01:38:58.071Z,38.33
2019-02-28T01:41:46.810Z,33.00
2019-02-28T01:44:15.990Z,34.43
2019-02-28T01:46:47.912Z,38.43
2019-02-28T01:49:16.214Z,36.67
2019-02-28T01:51:45.702Z,32.93
2019-02-28T01:54:14.990Z,36.43
2019-02-28T01:56:44.567Z,34.37
2019-02-28T01:59:13.826Z,34.53
2019-02-28T02:01:44.463Z,36.97
2019-02-28T02:04:13.653Z,35.97
2019-02-28T02:06:42.861Z,34.10
2019-02-28T02:09:12.116Z,34.27
2019-02-28T02:11:41.314Z,33.60
2019-02-28T02:14:11.031Z,34.10
2019-02-28T02:16:41.407Z,33.27
2019-02-28T02:19:10.769Z,34.50
2019-02-28T02:21:40.077Z,33.03
2019-02-28T02:24:09.323Z,32.70
2019-02-28T02:26:38.605Z,35.30
2019-02-28T02:29:07.858Z,33.77
2019-02-28T02:31:37.103Z,32.53
2019-02-28T02:34:06.407Z,33.87
2019-02-28T02:36:35.770Z,33.93
2019-02-28T02:39:06.587Z,35.23
2019-02-28T02:41:36.092Z,36.73
2019-02-28T02:44:05.398Z,33.13
2019-02-28T02:46:34.720Z,34.70
2019-02-28T02:49:04.470Z,32.57
2019-02-28T02:51:33.661Z,32.97
2019-02-28T02:54:03.375Z,33.03
2019-02-28T02:56:40.522Z,38.80
2019-02-28T02:59:03.654Z,32.53
2019-02-28T03:01:32.915Z,31.83
2019-02-28T03:04:02.190Z,34.43
2019-02-28T03:06:31.489Z,35.57
2019-02-28T03:09:00.793Z,36.27
2019-02-28T03:11:30.078Z,37.13
2019-02-28T03:13:59.380Z,37.30
2019-02-28T03:16:33.015Z,33.90
2019-02-28T03:18:59.750Z,39.37
2019-02-28T03:21:29.058Z,37.57
2019-02-28T03:23:58.383Z,33.37
2019-02-28T03:26:27.977Z,36.97
2019-02-28T03:28:57.186Z,34.13
2019-02-28T03:31:26.449Z,34.87
2019-02-28T03:33:55.872Z,35.10
2019-02-28T03:36:25.188Z,40.20
2019-02-28T03:38:54.447Z,34.60
2019-02-28T03:41:23.947Z,40.80
2019-02-28T03:43:53.307Z,37.30
2019-02-28T03:46:22.553Z,36.07
2019-02-28T03:48:52.311Z,40.37
2019-02-28T03:51:21.646Z,35.20
2019-02-28T03:53:55.645Z,37.57
2019-02-28T03:56:21.979Z,36.57
2019-02-28T03:58:51.282Z,37.60
2019-02-28T04:01:20.588Z,38.70
2019-02-28T04:03:49.879Z,40.63
2019-02-28T04:06:19.434Z,37.67
2019-02-28T04:08:48.668Z,38.87
2019-02-28T04:11:18.515Z,35.00
2019-02-28T04:13:47.931Z,34.93
2019-02-28T04:16:17.839Z,37.93
2019-02-28T04:18:47.371Z,43.20
2019-02-28T04:21:16.704Z,41.47
2019-02-28T04:23:46.215Z,39.93
2019-02-28T04:26:15.772Z,39.77
2019-02-28T04:28:45.100Z,44.83
2019-02-28T04:31:18.910Z,43.53
2019-02-28T04:33:45.498Z,38.27
2019-02-28T04:36:14.810Z,37.40
2019-02-28T04:38:44.066Z,42.17
2019-02-28T04:41:13.348Z,40.87
2019-02-28T04:43:44.411Z,44.10
2019-02-28T04:46:14.496Z,43.80
2019-02-28T04:48:45.628Z,42.00
2019-02-28T04:51:14.663Z,42.50
2019-02-28T04:53:43.847Z,43.70
2019-02-28T04:56:13.140Z,47.53
2019-02-28T04:58:42.322Z,44.20
2019-02-28T05:01:12.268Z,44.93
2019-02-28T05:03:42.636Z,42.30
2019-02-28T05:06:11.961Z,46.43
2019-02-28T05:08:41.230Z,46.03
2019-02-28T05:11:10.666Z,43.87
2019-02-28T05:13:41.135Z,45.27
2019-02-28T05:16:12.344Z,48.30
2019-02-28T05:18:41.651Z,50.60
2019-02-28T05:21:10.916Z,57.90
2019-02-28T05:23:40.169Z,51.33
2019-02-28T05:26:09.717Z,47.27
2019-02-28T05:28:41.211Z,47.77
2019-02-28T05:31:10.139Z,51.23
2019-02-28T05:33:41.917Z,48.30
2019-02-28T05:36:10.468Z,49.93
2019-02-28T05:38:39.702Z,50.43
2019-02-28T05:41:08.993Z,45.87
2019-02-28T05:43:38.302Z,52.97
2019-02-28T05:46:07.602Z,45.10
2019-02-28T05:48:38.742Z,46.70
2019-02-28T05:51:08.407Z,47.17
2019-02-28T05:53:41.275Z,52.73
2019-02-28T05:56:08.626Z,46.73
2019-02-28T05:58:37.886Z,43.80
2019-02-28T06:01:08.713Z,48.13
2019-02-28T06:03:38.147Z,45.27
2019-02-28T06:06:08.115Z,46.73
2019-02-28T06:08:39.042Z,42.70
2019-02-28T06:11:08.754Z,48.47
2019-02-28T06:13:38.080Z,47.93
2019-02-28T06:16:11.321Z,46.83
2019-02-28T06:18:38.319Z,43.87
2019-02-28T06:21:07.580Z,46.17
2019-02-28T06:23:36.907Z,50.37
2019-02-28T06:26:06.225Z,45.63
2019-02-28T06:28:35.547Z,44.00
2019-02-28T06:31:04.798Z,48.90
2019-02-28T06:33:34.455Z,46.63
2019-02-28T06:36:04.656Z,44.23
2019-02-28T06:38:33.963Z,49.53
2019-02-28T06:41:04.330Z,48.53
2019-02-28T06:43:34.354Z,46.90
2019-02-28T06:46:03.962Z,51.23
2019-02-28T06:48:33.245Z,44.07
2019-02-28T06:51:02.523Z,45.53
2019-02-28T06:53:35.599Z,47.70
2019-02-28T06:56:04.614Z,50.37
2019-02-28T06:58:34.043Z,48.87
2019-02-28T07:01:03.634Z,48.83
2019-02-28T07:03:35.270Z,48.13
2019-02-28T07:06:03.962Z,49.33
2019-02-28T07:08:33.670Z,48.00
2019-02-28T07:11:02.999Z,52.80
2019-02-28T07:13:32.391Z,51.57
2019-02-28T07:16:04.178Z,55.23
2019-02-28T07:18:32.854Z,61.30
2019-02-28T07:21:02.382Z,51.87
2019-02-28T07:23:31.691Z,59.63
2019-02-28T07:26:01.086Z,60.40
2019-02-28T07:28:36.037Z,59.47
2019-02-28T07:31:01.482Z,52.57
2019-02-28T07:33:30.737Z,56.97
2019-02-28T07:36:00.141Z,57.93
2019-02-28T07:38:29.791Z,54.50
2019-02-28T07:40:59.212Z,61.27
2019-02-28T07:43:28.542Z,62.30
2019-02-28T07:45:57.928Z,57.30
2019-02-28T07:48:29.960Z,59.20
2019-02-28T07:50:59.250Z,59.07
2019-02-28T07:53:28.701Z,58.53
2019-02-28T07:55:58.081Z,50.27
2019-02-28T07:58:29.857Z,53.87
2019-02-28T08:00:58.657Z,65.80
2019-02-28T08:03:28.206Z,64.50
2019-02-28T08:05:57.475Z,65.47
2019-02-28T08:08:27.054Z,66.53
2019-02-28T08:10:56.986Z,70.17
2019-02-28T08:13:26.341Z,76.57
2019-02-28T08:15:56.846Z,82.60
2019-02-28T08:18:26.813Z,394.17
2019-02-28T08:20:56.077Z,107.93
2019-02-28T08:23:25.374Z,101.10
2019-02-28T08:25:54.674Z,101.60
2019-02-28T08:28:26.062Z,106.23
2019-02-28T08:30:56.042Z,103.27
2019-02-28T08:33:25.534Z,108.37
2019-02-28T08:35:54.786Z,119.37
2019-02-28T08:38:24.054Z,116.47
2019-02-28T08:40:53.382Z,97.73
2019-02-28T08:43:27.208Z,98.27
2019-02-28T08:45:53.756Z,88.27
2019-02-28T08:48:23.046Z,82.90
2019-02-28T08:50:52.618Z,85.03
2019-02-28T08:53:23.330Z,71.60
2019-02-28T08:55:52.616Z,144.53
2019-02-28T08:58:21.918Z,103.90
2019-02-28T09:00:51.262Z,106.00
2019-02-28T09:03:20.673Z,108.73
2019-02-28T09:05:49.947Z,105.27
2019-02-28T09:08:19.323Z,98.53
2019-02-28T09:10:48.675Z,92.73
2019-02-28T09:13:18.091Z,95.80
2019-02-28T09:15:47.393Z,94.53
2019-02-28T09:18:16.994Z,95.13
2019-02-28T09:20:46.242Z,96.27
2019-02-28T09:23:15.489Z,95.63
2019-02-28T09:25:44.841Z,92.97
2019-02-28T09:28:14.230Z,96.97
2019-02-28T09:30:43.531Z,92.60
2019-02-28T09:33:13.108Z,103.13
2019-02-28T09:35:46.332Z,98.00
2019-02-28T09:38:13.919Z,95.20
2019-02-28T09:40:43.338Z,93.73
2019-02-28T09:43:12.746Z,88.90
2019-02-28T09:45:42.010Z,83.53
2019-02-28T09:48:11.312Z,81.03
2019-02-28T09:50:40.639Z,83.07
2019-02-28T09:53:09.893Z,81.07
2019-02-28T09:55:39.848Z,77.83
2019-02-28T09:58:09.432Z,82.33
2019-02-28T10:00:58.130Z,76.00
2019-02-28T10:03:27.416Z,79.17
2019-02-28T10:05:57.039Z,76.87
2019-02-28T10:08:26.333Z,79.47
2019-02-28T10:10:56.070Z,79.30
2019-02-28T10:13:26.933Z,75.33
2019-02-28T10:15:56.515Z,72.17
2019-02-28T10:18:25.858Z,75.10
2019-02-28T10:20:55.127Z,78.53
2019-02-28T10:23:24.517Z,69.90
2019-02-28T10:25:53.886Z,75.87
2019-02-28T10:28:23.190Z,72.27
2019-02-28T10:30:52.504Z,49.43
2019-02-28T10:33:21.773Z,49.90
2019-02-28T10:35:51.054Z,40.87
2019-02-28T10:38:20.758Z,38.93
2019-02-28T10:40:52.472Z,39.63
2019-02-28T10:43:21.126Z,52.40
2019-02-28T10:45:50.527Z,59.90
2019-02-28T10:48:19.970Z,61.93
2019-02-28T10:50:49.395Z,53.13
2019-02-28T10:53:18.773Z,68.50
2019-02-28T10:55:48.233Z,68.47
2019-02-28T10:58:17.606Z,65.00
2019-02-28T11:00:47.439Z,73.97
2019-02-28T11:03:17.683Z,72.43
2019-02-28T11:05:53.488Z,74.13
2019-02-28T11:08:19.370Z,75.50
2019-02-28T11:10:49.289Z,76.63
2019-02-28T11:13:19.510Z,80.10
2019-02-28T11:15:49.373Z,71.93
2019-02-28T11:18:18.932Z,45.63
2019-02-28T11:20:48.193Z,72.97
2019-02-28T11:23:18.067Z,74.70
2019-02-28T11:25:47.331Z,72.90
2019-02-28T11:28:17.205Z,74.80
2019-02-28T11:30:47.812Z,73.47
2019-02-28T11:33:17.484Z,70.50
2019-02-28T11:35:46.758Z,50.50
2019-02-28T11:38:20.388Z,51.97
2019-02-28T11:40:54.696Z,52.77
2019-02-28T11:43:19.072Z,49.93
2019-02-28T11:45:48.663Z,40.60
2019-02-28T11:48:20.197Z,52.13
2019-02-28T11:51:09.034Z,35.80
2019-02-28T11:53:40.388Z,57.53
2019-02-28T11:56:10.079Z,57.63
2019-02-28T11:58:39.657Z,59.80
2019-02-28T12:01:10.537Z,58.57
2019-02-28T12:03:40.494Z,34.93
2019-02-28T12:06:09.777Z,32.53
2019-02-28T12:08:41.649Z,57.30
2019-02-28T12:11:10.030Z,66.10
2019-02-28T12:13:39.356Z,73.80
2019-02-28T12:16:08.571Z,66.13
2019-02-28T12:18:39.988Z,46.57
2019-02-28T12:21:08.926Z,43.73
2019-02-28T12:23:38.227Z,63.13
2019-02-28T12:26:07.637Z,53.70
2019-02-28T12:28:38.313Z,60.80
2019-02-28T12:31:08.278Z,71.03
2019-02-28T12:33:37.934Z,85.53
2019-02-28T12:36:07.823Z,44.80
2019-02-28T12:38:37.594Z,43.77
2019-02-28T12:41:07.158Z,50.00
2019-02-28T12:43:36.570Z,65.23
2019-02-28T12:46:05.943Z,35.73
2019-02-28T12:48:35.472Z,60.70
2019-02-28T12:51:05.316Z,70.23
2019-02-28T12:53:35.735Z,46.77
2019-02-28T12:56:05.012Z,60.27
2019-02-28T12:58:38.836Z,57.00
2019-02-28T13:01:07.299Z,64.30
2019-02-28T13:03:36.880Z,55.03
2019-02-28T13:06:06.286Z,51.60
2019-02-28T13:08:38.686Z,60.47
2019-02-28T13:11:06.934Z,54.40
2019-02-28T13:13:36.294Z,45.07
2019-02-28T13:16:24.539Z,42.53
2019-02-28T13:18:55.267Z,39.30
2019-02-28T13:21:24.533Z,36.70
2019-02-28T13:23:53.818Z,45.57
2019-02-28T13:26:23.407Z,43.47
2019-02-28T13:28:54.635Z,49.67
2019-02-28T13:31:25.589Z,47.73
2019-02-28T13:33:54.736Z,71.27
2019-02-28T13:36:24.702Z,65.83
2019-02-28T13:38:55.758Z,71.20
2019-02-28T13:41:26.737Z,63.83
2019-02-28T13:43:59.293Z,38.23
2019-02-28T13:46:32.386Z,58.23
2019-02-28T13:49:02.534Z,46.43
2019-02-28T13:51:32.783Z,59.53
2019-02-28T13:54:06.084Z,72.60
2019-02-28T13:56:34.279Z,64.70
2019-02-28T13:59:03.803Z,59.17
2019-02-28T14:01:33.143Z,52.03
2019-02-28T14:04:06.242Z,49.53
2019-02-28T14:06:35.497Z,46.30
2019-02-28T14:09:07.446Z,55.27
2019-02-28T14:11:37.263Z,77.30
2019-02-28T14:14:07.769Z,38.37
2019-02-28T14:16:37.101Z,48.97
2019-02-28T14:19:06.508Z,54.93
2019-02-28T14:21:37.034Z,64.17
2019-02-28T14:24:06.794Z,47.77
2019-02-28T14:26:42.623Z,65.20
2019-02-28T14:29:10.734Z,46.10
2019-02-28T14:31:38.510Z,44.80
2019-02-28T14:34:08.265Z,43.03
2019-02-28T14:36:37.594Z,53.37
2019-02-28T14:39:11.745Z,39.40
2019-02-28T14:41:41.442Z,48.40
2019-02-28T14:44:10.783Z,37.13
2019-02-28T14:46:40.199Z,44.70
2019-02-28T14:49:12.545Z,49.10
2019-02-28T14:51:40.690Z,45.33
2019-02-28T14:54:10.138Z,48.70
2019-02-28T14:56:42.097Z,58.27
2019-02-28T14:59:10.576Z,50.63
2019-02-28T15:01:39.974Z,51.63
2019-02-28T15:04:09.324Z,50.27
2019-02-28T15:06:38.678Z,56.23
2019-02-28T15:09:15.763Z,52.20
2019-02-28T15:11:46.881Z,49.17
2019-02-28T15:14:16.619Z,53.47
2019-02-28T15:16:46.035Z,54.13
2019-02-28T15:19:17.011Z,55.97
2019-02-28T15:21:46.458Z,33.17
2019-02-28T15:24:16.093Z,34.07
2019-02-28T15:26:45.738Z,31.77
2019-02-28T15:29:15.186Z,35.13
2019-02-28T15:31:44.643Z,39.43
2019-02-28T15:34:14.051Z,35.27
2019-02-28T15:36:43.467Z,39.23
2019-02-28T15:39:12.928Z,30.93
2019-02-28T15:41:42.252Z,29.53
2019-02-28T15:44:11.740Z,30.00
2019-02-28T15:46:43.820Z,35.37
2019-02-28T15:49:12.193Z,33.53
2019-02-28T15:51:41.500Z,26.27
2019-02-28T15:54:10.884Z,26.03
2019-02-28T15:56:40.401Z,31.93
2019-02-28T15:59:11.616Z,32.57
2019-02-28T16:01:59.079Z,30.90
2019-02-28T16:04:28.378Z,27.73
2019-02-28T16:06:58.268Z,32.50
2019-02-28T16:09:27.615Z,36.20
2019-02-28T16:11:57.424Z,28.53
2019-02-28T16:14:26.700Z,34.00
2019-02-28T16:16:56.790Z,29.57
2019-02-28T16:19:27.323Z,32.27
2019-02-28T16:21:56.733Z,27.20
2019-02-28T16:24:26.013Z,32.13
2019-02-28T16:26:56.862Z,31.47
2019-02-28T16:29:26.261Z,33.87
2019-02-28T16:31:55.641Z,32.23
2019-02-28T16:34:25.035Z,26.20
2019-02-28T16:36:54.328Z,28.53
2019-02-28T16:39:23.563Z,29.40
2019-02-28T16:41:52.894Z,21.40
2019-02-28T16:44:22.169Z,19.97
2019-02-28T16:46:51.475Z,21.83
2019-02-28T16:49:20.786Z,24.07
2019-02-28T16:51:50.042Z,12.23
2019-02-28T16:54:22.437Z,20.83
2019-02-28T16:56:50.479Z,22.90
2019-02-28T16:59:19.846Z,23.00
2019-02-28T17:01:51.425Z,25.03
2019-02-28T17:04:20.276Z,13.50
2019-02-28T17:06:49.694Z,21.67
2019-02-28T17:09:31.239Z,16.77
2019-02-28T17:12:06.138Z,20.67
2019-02-28T17:14:35.446Z,12.83
2019-02-28T17:17:16.057Z,23.03
2019-02-28T17:19:45.334Z,23.40
2019-02-28T17:22:14.617Z,26.17
2019-02-28T17:24:46.143Z,16.47
2019-02-28T17:27:35.251Z,36.13
2019-02-28T17:30:27.819Z,29.70
2019-02-28T17:32:57.293Z,35.73
2019-02-28T17:35:26.560Z,29.10
2019-02-28T17:37:59.860Z,32.37
2019-02-28T17:40:27.072Z,32.67
2019-02-28T17:42:56.494Z,27.40
2019-02-28T17:45:31.746Z,30.13
2019-02-28T17:48:40.328Z,22.83
2019-02-28T17:51:42.864Z,34.10
2019-02-28T17:54:22.084Z,32.40
2019-02-28T17:57:06.963Z,35.40
2019-02-28T18:00:21.459Z,28.50
2019-02-28T18:03:39.626Z,25.23
2019-02-28T18:06:47.242Z,33.63
2019-02-28T18:09:48.079Z,20.73
2019-02-28T18:12:55.274Z,28.10
2019-02-28T18:15:46.901Z,19.27
2019-02-28T18:19:33.060Z,31.40
2019-02-28T18:22:18.448Z,17.77
2019-02-28T18:25:52.050Z,27.03
2019-02-28T18:29:01.973Z,32.77
2019-02-28T18:31:32.085Z,27.77
2019-02-28T18:34:10.794Z,24.33
2019-02-28T18:36:43.104Z,28.30
2019-02-28T18:39:12.377Z,34.00
2019-02-28T18:41:43.188Z,20.80
2019-02-28T18:44:12.959Z,27.30
2019-02-28T18:46:42.679Z,31.83
2019-02-28T18:49:12.034Z,27.43
2019-02-28T18:51:41.403Z,35.33
2019-02-28T18:54:10.769Z,34.57
2019-02-28T18:56:40.133Z,32.00
2019-02-28T18:59:10.811Z,25.03
2019-02-28T19:01:40.199Z,26.13
2019-02-28T19:04:09.502Z,35.87
2019-02-28T19:06:38.818Z,37.73
2019-02-28T19:09:22.978Z,31.40
2019-02-28T19:11:52.326Z,45.77
2019-02-28T19:14:21.801Z,38.93
2019-02-28T19:16:51.239Z,36.10
2019-02-28T19:19:20.609Z,32.67
2019-02-28T19:21:50.052Z,41.10
2019-02-28T19:24:19.679Z,39.97
2019-02-28T19:26:49.170Z,43.57
2019-02-28T19:29:18.509Z,42.27
2019-02-28T19:31:47.938Z,37.77
2019-02-28T19:34:17.378Z,43.27
2019-02-28T19:36:46.675Z,49.47
2019-02-28T19:39:16.038Z,53.17
2019-02-28T19:41:45.690Z,40.97
2019-02-28T19:44:15.082Z,40.60
2019-02-28T19:46:44.450Z,41.37
2019-02-28T19:49:13.979Z,43.23
2019-02-28T19:51:43.236Z,41.93
2019-02-28T19:54:12.698Z,46.80
2019-02-28T19:56:42.011Z,39.20
2019-02-28T19:59:11.302Z,34.80
2019-02-28T20:01:40.702Z,35.93
2019-02-28T20:04:10.025Z,38.17
2019-02-28T20:06:39.323Z,41.93
2019-02-28T20:09:09.988Z,44.50
2019-02-28T20:11:39.475Z,35.23
2019-02-28T20:14:08.939Z,31.90
2019-02-28T20:16:38.315Z,39.13
2019-02-28T20:19:07.707Z,39.70
2019-02-28T20:21:37.059Z,40.77
2019-02-28T20:24:07.693Z,43.67
2019-02-28T20:26:37.016Z,39.87
2019-02-28T20:29:06.487Z,34.53
2019-02-28T20:31:35.795Z,34.47
2019-02-28T20:34:05.178Z,39.63
2019-02-28T20:36:36.285Z,30.23
2019-02-28T20:39:08.712Z,32.97
2019-02-28T20:41:38.172Z,40.80
2019-02-28T20:44:08.027Z,35.37
2019-02-28T20:46:37.492Z,31.97
2019-02-28T20:49:06.833Z,35.63
2019-02-28T20:51:36.159Z,33.60
2019-02-28T20:54:05.474Z,27.97
2019-02-28T20:56:34.821Z,29.60
2019-02-28T20:59:10.982Z,30.57
2019-02-28T21:01:40.283Z,27.90
2019-02-28T21:04:09.743Z,31.00
2019-02-28T21:06:39.087Z,27.07
2019-02-28T21:09:08.862Z,34.23
2019-02-28T21:11:38.122Z,34.70
2019-02-28T21:14:07.476Z,31.97
2019-02-28T21:16:36.876Z,36.17
2019-02-28T21:19:06.316Z,30.60
2019-02-28T21:21:36.093Z,34.60
2019-02-28T21:24:05.564Z,31.63
2019-02-28T21:26:34.880Z,29.93
2019-02-28T21:29:04.298Z,34.73
2019-02-28T21:31:33.806Z,36.90
2019-02-28T21:34:03.113Z,26.80
2019-02-28T21:36:33.061Z,32.43
2019-02-28T21:39:02.320Z,36.77
2019-02-28T21:41:31.510Z,31.30
2019-02-28T21:44:00.844Z,26.27
2019-02-28T21:46:30.110Z,29.40
2019-02-28T21:48:59.402Z,32.50
2019-02-28T21:51:28.701Z,36.77
2019-02-28T21:53:58.110Z,30.93
2019-02-28T21:56:27.392Z,33.97
2019-02-28T21:58:59.180Z,34.80
2019-02-28T22:01:28.734Z,32.93
2019-02-28T22:03:58.013Z,42.33
2019-02-28T22:06:27.356Z,32.67
2019-02-28T22:08:56.808Z,44.23
2019-02-28T22:11:26.287Z,43.07
2019-02-28T22:13:55.665Z,40.63
2019-02-28T22:16:24.950Z,36.30
2019-02-28T22:18:54.220Z,43.33
2019-02-28T22:21:23.677Z,34.43
2019-02-28T22:23:54.023Z,45.93
2019-02-28T22:26:23.378Z,28.50
2019-02-28T22:28:52.691Z,41.70
2019-02-28T22:31:43.900Z,38.17
2019-02-28T22:34:23.506Z,40.73
2019-02-28T22:36:52.772Z,41.87
2019-02-28T22:39:22.287Z,43.10
2019-02-28T22:41:51.529Z,41.00
2019-02-28T22:44:20.878Z,40.70
2019-02-28T22:46:50.194Z,38.90
2019-02-28T22:49:19.568Z,43.77
2019-02-28T22:51:49.430Z,49.80
2019-02-28T22:54:18.845Z,48.47
2019-02-28T22:56:48.162Z,49.23
2019-02-28T22:59:17.444Z,54.50
2019-02-28T23:01:47.226Z,48.73
2019-02-28T23:04:16.598Z,57.03
2019-02-28T23:06:45.961Z,51.13
2019-02-28T23:09:15.432Z,51.87
2019-02-28T23:11:44.747Z,57.47
2019-02-28T23:14:14.038Z,59.97
2019-02-28T23:16:43.324Z,61.07
2019-02-28T23:19:12.635Z,64.40
2019-02-28T23:21:41.928Z,74.80
2019-02-28T23:24:11.237Z,76.53
2019-02-28T23:27:16.064Z,70.47
2019-02-28T23:30:21.591Z,72.87
2019-02-28T23:33:00.175Z,68.97
2019-02-28T23:35:35.346Z,79.03
2019-02-28T23:38:04.748Z,67.93
2019-02-28T23:40:34.015Z,81.63
2019-02-28T23:43:03.574Z,69.17
2019-02-28T23:45:32.870Z,76.80
2019-02-28T23:48:02.159Z,76.43
2019-02-28T23:50:31.421Z,77.37
2019-02-28T23:53:00.741Z,65.33
2019-02-28T23:55:32.465Z,71.67
2019-02-28T23:58:01.777Z,66.93
